Lavaca, Arkansas
Current Conditions -  °F | °C
As of 5:53 AM on Friday 24 Oct 2014 (Local Time) from KFSM Reporting Station
Clear Clear  
Wind Chill: 53°   Ceiling: Unl
Heat Index: 53°   Visibility: 8mi
Dew Point: 51°   Wind: 5mph
Humidity: 93%   Direction: 50°NE
Pressure: 30.14"   Gusts: NA
Location:  35.34°N, 94.17°W
Report Text: KFSM 241053Z 05004KT 8SM CLR 12/11 A3014 RMK AO2 SLP205 T01170106
Loading
Personal Weather Stations






























Interactive Weather Map
Tropical Storm Tracking
New forecast layout! Learn more

10-Day Weather Forecast

Advertisements
Track Severe Weather on mobile